Portada
METAR-TAF:

METAR-TAF

Aeroports :

Juliaca, Perú

latitud: 15-29S, longitud: 070-09W, altitud: 3826 m

Observació

L'informe es va fer fa 3 hores i 48 minuts, a les 00:00 UTC
Vent 5 kt del Oest
Temperatura 13°C
Humitat 28%
Pressió 1034 hPa
Visibilitat 10 km o més
Núvols disperses a una alçada de 2000 ft
Núvols disperses a una alçada de 10000 ft

METAR: SPJL 240000Z 26005KT 9999 SCT020 SCT100 13/M05 Q1034 RMK BIRD HAZARD RWY 12/30 PP000

Hora: 22:48 (03:48 UTC)

Pronòstic

L'informe es va fer fa 10 hores i 48 minuts, a les 17:00 UTC
Pronòstic vàlid del 23 a les 18 UTC al 24 a les 18 UTC
Vent 6 kt del Oest/Sud-Oest
Visibilitat 10 km o més
Escasses núvols a una alçada de 2000 ft
A partir de les 24 a les 0000 UTC
Vent 2 kt amb direcció variable
Visibilitat 10 km o més
sense núvols per sota de 1500 mi sense presència de cumulonimbus.

TAF: SPJL 231700Z 2318/2418 25006KT 9999 FEW020 TX18/2319Z TNM04/2411Z FM240000 VRB02KT CAVOK

Observacions i pronòstics meteorològics de més de 4000 aeroports (METAR i TAF).

Les estacions disponibles són els punts grocs i vermells al mapa.

Posi el ratolí al punt desitjat per veure el nom de l'estació.

Feu clic per veure les observacions i els pronòstics meteorològics.

Per canviar el mapa: feu clic els botons verds amb una creu de color negre per apropar; al botó verd amb un guió per allunyar la imatge; o en les fletxes verdes per a mapes adjacents.


METAR-TAF: